Friday, September 21, 2018, 10:12 PM EDT
Back to Local

KPSF, Pittsfield Municipal Airport

Location: Pittsfield, MA, United States Lat: 42.433
Local Time: 10:12 PM EDT ( 2:12 GMT) Lon: -73.283
Time Zone: US/Eastern Elev: 1194 ft

Show me the last for .
Show Decoded

2018-09-21 21:54 METAR KPSF 220154Z AUTO 20016G26KT 7SM OVC012 20/17 A2994 RMK AO2 PK WND
                 22033/0134 SLP119 T02000167 =
2018-09-21 20:54 METAR KPSF 220054Z AUTO 21010G18KT 9SM OVC012 19/16 A2995 RMK AO2 SLP121
                 T01940161 =
2018-09-21 19:54 METAR KPSF 212354Z AUTO 19012G19KT 10SM BKN010 OVC015 18/16 A2994 RMK AO2 CIG
                 008V012 SLP121 T01830156 10183 20172 56018 =
2018-09-21 19:52 METAR KPSF 212352Z AUTO 19012G19KT 10SM BKN010 OVC015 18/16 A2995 RMK AO2 CIG
                 008V012 =
2018-09-21 19:14 METAR KPSF 212314Z AUTO 19012G19KT 9SM OVC009 18/16 A2996 RMK AO2 T01830156 =
2018-09-21 18:54 METAR KPSF 212254Z AUTO 19013G23KT 8SM OVC010 18/16 A2997 RMK AO2 CIG 009V013
                 SLP131 T01830156 =
2018-09-21 17:54 METAR KPSF 212154Z AUTO 19008G20KT 140V230 8SM OVC012 18/15 A3000 RMK AO2 SLP140
                 T01830150 =
2018-09-21 17:32 METAR KPSF 212132Z AUTO 18007G19KT 10SM OVC013 18/14 A3001 RMK AO2 T01830144 =
2018-09-21 16:54 METAR KPSF 212054Z AUTO 19012G18KT 10SM OVC017 18/14 A3002 RMK AO2 SLP148
                 T01830144 58028 =
2018-09-21 15:54 METAR KPSF 211954Z AUTO 19007G17KT 10SM OVC016 18/14 A3006 RMK AO2 SLP163
                 T01780144 =
2018-09-21 15:02 METAR KPSF 211902Z AUTO 20011G23KT 10SM OVC015 18/14 A3008 RMK AO2 T01780144 =
2018-09-21 14:54 METAR KPSF 211854Z AUTO 19011G20KT 10SM OVC014 18/14 A3008 RMK AO2 SLP168
                 T01780139 =
2018-09-21 13:54 METAR KPSF 211754Z AUTO 19008KT 10SM OVC012 17/14 A3011 RMK AO2 SLP178 60009
                 T01720144 10172 20156 58026 =
2018-09-21 12:54 METAR KPSF 211654Z AUTO 16008KT 120V210 5SM BR OVC010 17/14 A3014 RMK AO2
                 RAB12E21 SLP191 P0001 T01670144 =
2018-09-21 12:43 METAR KPSF 211643Z AUTO 19011G18KT 3SM BR OVC010 17/14 A3015 RMK AO2 RAB12E21
                 P0001 T01670144 =
2018-09-21 12:36 METAR KPSF 211636Z AUTO 19011G18KT 3SM BR OVC008 17/14 A3015 RMK AO2 RAB12E21
                 CIG 006V012 P0001 T01670144 =
2018-09-21 12:10 METAR KPSF 211610Z AUTO 14008KT 2 1/2SM BR OVC009 17/14 A3016 RMK AO2 CIG
                 007V013 T01670144 =
2018-09-21 11:54 METAR KPSF 211554Z AUTO 20010KT 3SM BR OVC009 17/14 A3017 RMK AO2 CIG 007V013
                 SLP199 T01670144 =
2018-09-21 11:41 METAR KPSF 211541Z AUTO 19012G17KT 150V210 4SM BR BKN008 OVC012 17/14 A3017 RMK
                 AO2 CIG 007V010 T01670144 =
2018-09-21 11:18 METAR KPSF 211518Z AUTO VRB03G14KT 2 1/2SM HZ OVC009 17/14 A3018 RMK AO2 CIG
                 007V013 T01670139 =
2018-09-21 11:11 METAR KPSF 211511Z AUTO 21007G15KT 3SM HZ OVC009 17/14 A3018 RMK AO2 CIG 006V013
                 T01670139 =
2018-09-21 11:02 METAR KPSF 211502Z AUTO 19008KT 140V210 2 1/2SM HZ OVC007 17/14 A3019 RMK AO2
                 CIG 006V011 T01670139 =
2018-09-21 10:54 METAR KPSF 211454Z AUTO 19008G14KT 1 3/4SM HZ OVC007 17/14 A3019 RMK AO2 RAE07
                 CIG 004V011 SLP206 P0002 60008 T01670139 58016 =
2018-09-21 09:54 METAR KPSF 211354Z AUTO VRB04KT 1 1/4SM -RA BR OVC006 16/14 A3021 RMK AO2 CIG
                 004V009 SLP213 P0003 T01610139 =
2018-09-21 08:54 METAR KPSF 211254Z AUTO VRB05KT 1 1/4SM -RA BR OVC006 16/14 A3023 RMK AO2 SLP221
                 P0003 T01560139 =
2018-09-21 07:54 METAR KPSF 211154Z AUTO 1 1/4SM -RA BR OVC006 16/14 A3024 RMK AO2 RAE1055B23 CIG
                 004V008 SLP223 P0003 60008 70008 T01560139 10167 20150 51003 $ =
2018-09-21 07:12 METAR KPSF 211112Z AUTO 12006KT 1 1/2SM BR BKN006 OVC013 16/14 A3023 RMK AO2
                 RAE1055 P0001 T01560139 =
2018-09-21 06:54 METAR KPSF 211054Z AUTO 13005KT 2 1/2SM -RA BR BKN006 BKN012 OVC025 16/13 A3024
                 RMK AO2 RAB30 SLP223 P0001 T01560133 =
2018-09-21 05:54 METAR KPSF 210954Z AUTO 14007KT 2SM BR BKN007 BKN011 OVC017 16/13 A3023 RMK AO2
                 SLP220 P0001 T01560133 =
2018-09-21 05:22 METAR KPSF 210922Z AUTO VRB05KT 2 1/2SM BR BKN007 BKN013 OVC027 16/13 A3023 RMK
                 AO2 P0001 T01560133 =
2018-09-21 05:12 METAR KPSF 210912Z AUTO 16007G16KT 3SM BR BKN006 BKN013 OVC027 16/13 A3023 RMK
                 AO2 P0001 T01560133 =
2018-09-21 04:54 METAR KPSF 210854Z AUTO 14007KT 2 1/2SM BR BKN006 BKN012 OVC027 16/13 A3023 RMK
                 AO2 RAE39 SLP218 P0002 60003 T01560133 55001 =
2018-09-21 03:54 METAR KPSF 210754Z AUTO 14009KT 2 1/2SM -RA BR OVC007 16/13 A3023 RMK AO2 RAB43
                 SLP218 P0001 T01560133 =
2018-09-21 03:49 METAR KPSF 210749Z AUTO 15007KT 2 1/2SM -RA BR OVC007 16/13 A3023 RMK AO2 RAB43
                 P0001 =
2018-09-21 02:54 METAR KPSF 210654Z AUTO 15009KT 10SM OVC009 16/13 A3024 RMK AO2 SLP219 T01610133
                 =
2018-09-21 01:54 METAR KPSF 210554Z AUTO 12004KT 10SM OVC014 16/13 A3024 RMK AO2 SLP220 T01610133
                 10172 20161 58006 =
2018-09-21 00:54 METAR KPSF 210454Z AUTO 15005KT 10SM FEW016 OVC025 16/13 A3025 RMK AO2 SLP225
                 T01610128 402060144 =
2018-09-20 23:54 METAR KPSF 210354Z AUTO 15008KT 10SM SCT015 BKN021 OVC029 16/13 A3026 RMK AO2
                 SLP228 T01610128 =
2018-09-20 23:47 METAR KPSF 210347Z AUTO 12005KT 10SM BKN015 BKN023 OVC031 16/12 A3026 RMK AO2
                 T01610122 =
2018-09-20 22:54 METAR KPSF 210254Z AUTO 13006KT 10SM OVC031 17/12 A3026 RMK AO2 SLP230 T01670122
                 51007 =

Support USWX by starting your Amazon purchase here.